createdAt,value
2022-08-05T00:00:54.308Z,25.53
2022-08-05T00:03:21.573Z,25.57
2022-08-05T00:06:04.777Z,25.94
2022-08-05T00:08:36.506Z,26.45
2022-08-05T00:11:03.798Z,26.94
2022-08-05T00:13:38.207Z,27.19
2022-08-05T00:16:08.430Z,27.54
2022-08-05T00:18:35.921Z,27.66
2022-08-05T00:21:05.201Z,27.97
2022-08-05T00:23:45.850Z,28.12
2022-08-05T00:26:14.406Z,28.23
2022-08-05T00:28:43.657Z,28.55
2022-08-05T00:31:13.098Z,28.39
2022-08-05T00:34:56.345Z,28.88
2022-08-05T00:37:10.449Z,28.73
2022-08-05T00:39:14.930Z,28.75
2022-08-05T00:41:51.539Z,29.00
2022-08-05T00:44:20.872Z,29.12
2022-08-05T00:46:54.107Z,29.05
2022-08-05T00:49:32.820Z,29.20
2022-08-05T00:52:00.276Z,29.07
2022-08-05T00:54:28.103Z,28.76
2022-08-05T00:56:57.391Z,28.69
2022-08-05T00:59:24.657Z,28.43
2022-08-05T01:01:52.026Z,28.59
2022-08-05T01:04:20.072Z,28.75
2022-08-05T01:06:53.830Z,28.73
2022-08-05T01:09:22.329Z,28.61
2022-08-05T01:11:49.999Z,28.87
2022-08-05T01:14:28.227Z,28.77
2022-08-05T01:16:55.891Z,28.96
2022-08-05T01:19:36.766Z,29.17
2022-08-05T01:22:15.451Z,28.98
2022-08-05T01:24:46.187Z,28.80
2022-08-05T01:27:19.477Z,28.86
2022-08-05T01:29:49.400Z,28.71
2022-08-05T01:32:19.074Z,28.14
2022-08-05T01:34:46.314Z,27.43
2022-08-05T01:37:24.677Z,27.41
2022-08-05T01:39:52.665Z,27.13
2022-08-05T01:42:21.465Z,27.48
2022-08-05T01:44:54.274Z,27.88
2022-08-05T01:47:22.238Z,28.05
2022-08-05T01:50:01.795Z,28.37
2022-08-05T01:52:29.981Z,28.59
2022-08-05T01:54:57.652Z,28.64
2022-08-05T01:58:13.194Z,28.50
2022-08-05T02:00:12.463Z,27.85
2022-08-05T02:02:51.162Z,28.02
2022-08-05T02:05:23.521Z,27.81
2022-08-05T02:08:00.983Z,27.93
2022-08-05T02:10:28.850Z,27.91
2022-08-05T02:12:56.150Z,28.18
2022-08-05T02:15:23.446Z,28.34
2022-08-05T02:18:31.407Z,28.30
2022-08-05T02:20:38.939Z,27.92
2022-08-05T02:23:06.554Z,27.92
2022-08-05T02:25:49.104Z,28.09
2022-08-05T02:28:17.988Z,28.28
2022-08-05T02:30:56.564Z,28.36
2022-08-05T02:33:24.557Z,28.38
2022-08-05T02:36:03.578Z,28.37
2022-08-05T02:38:35.386Z,28.18
2022-08-05T02:41:14.535Z,28.19
2022-08-05T02:44:06.639Z,28.01
2022-08-05T02:46:31.897Z,28.25
2022-08-05T02:48:59.683Z,28.28
2022-08-05T02:51:28.509Z,28.02
2022-08-05T02:54:35.755Z,27.78
2022-08-05T02:57:01.415Z,27.94
2022-08-05T02:59:28.685Z,28.11
2022-08-05T03:02:01.959Z,28.20
2022-08-05T03:04:29.375Z,28.09
2022-08-05T03:06:59.344Z,27.77
2022-08-05T03:09:36.273Z,27.87
2022-08-05T03:12:06.069Z,27.58
2022-08-05T03:14:33.337Z,27.64
2022-08-05T03:17:00.893Z,27.82
2022-08-05T03:19:33.412Z,27.50
2022-08-05T03:22:05.012Z,27.79
2022-08-05T03:24:38.556Z,27.94
2022-08-05T03:27:06.621Z,27.63
2022-08-05T03:29:45.808Z,27.85
2022-08-05T03:32:21.454Z,27.82
2022-08-05T03:34:58.356Z,27.92
2022-08-05T03:37:26.056Z,27.98
2022-08-05T03:39:59.138Z,27.71
2022-08-05T03:42:28.953Z,27.84
2022-08-05T03:44:57.079Z,27.86
2022-08-05T03:47:24.636Z,28.07
2022-08-05T03:49:52.582Z,27.72
2022-08-05T03:52:38.610Z,27.38
2022-08-05T03:56:06.097Z,27.37
2022-08-05T03:57:54.292Z,27.64
2022-08-05T04:00:21.648Z,27.32
2022-08-05T04:02:57.903Z,27.40
2022-08-05T04:05:26.166Z,27.37
2022-08-05T04:07:58.745Z,27.68
2022-08-05T04:10:27.548Z,27.73
2022-08-05T04:13:14.121Z,27.51
2022-08-05T04:16:02.973Z,27.67
2022-08-05T04:18:28.609Z,27.74
2022-08-05T04:20:56.984Z,27.79
2022-08-05T04:24:04.766Z,27.78
2022-08-05T04:26:11.512Z,27.93
2022-08-05T04:28:50.712Z,27.81
2022-08-05T04:31:21.313Z,27.69
2022-08-05T04:34:19.125Z,27.39
2022-08-05T04:36:46.213Z,27.49
2022-08-05T04:39:17.226Z,27.63
2022-08-05T04:41:45.637Z,27.45
2022-08-05T04:44:13.040Z,27.58
2022-08-05T04:46:40.287Z,27.48
2022-08-05T04:49:12.163Z,27.60
2022-08-05T04:51:41.680Z,27.49
2022-08-05T04:54:09.944Z,27.49
2022-08-05T04:56:37.511Z,27.45
2022-08-05T04:59:22.288Z,27.51
2022-08-05T05:02:35.737Z,27.57
2022-08-05T05:04:43.979Z,27.59
2022-08-05T05:07:15.998Z,27.68
2022-08-05T05:09:46.463Z,27.77
2022-08-05T05:12:13.719Z,27.78
2022-08-05T05:14:49.265Z,27.92
2022-08-05T05:17:23.314Z,28.07
2022-08-05T05:19:51.363Z,28.09
2022-08-05T05:22:23.713Z,28.29
2022-08-05T05:24:56.987Z,28.16
2022-08-05T05:27:44.499Z,27.93
2022-08-05T05:30:28.779Z,28.16
2022-08-05T05:33:00.396Z,28.27
2022-08-05T05:35:38.110Z,28.27
2022-08-05T05:38:09.340Z,28.56
2022-08-05T05:40:48.019Z,28.83
2022-08-05T05:43:27.875Z,28.80
2022-08-05T05:46:05.127Z,29.01
2022-08-05T05:48:33.077Z,28.99
2022-08-05T05:51:13.035Z,29.17
2022-08-05T05:53:54.387Z,29.30
2022-08-05T05:56:32.656Z,29.36
2022-08-05T05:59:03.452Z,29.50
2022-08-05T06:01:37.627Z,27.32
2022-08-05T06:04:05.915Z,27.27
2022-08-05T06:06:34.979Z,26.79
2022-08-05T06:09:03.956Z,27.44
2022-08-05T06:11:31.468Z,28.11
2022-08-05T06:14:00.349Z,27.60
2022-08-05T06:16:36.733Z,26.44
2022-08-05T06:19:05.773Z,25.79
2022-08-05T06:21:37.055Z,25.06
2022-08-05T06:24:05.022Z,26.16
2022-08-05T06:26:33.953Z,25.48
2022-08-05T06:29:03.366Z,25.48
2022-08-05T06:31:33.748Z,26.47
2022-08-05T06:34:07.817Z,26.74
2022-08-05T06:36:37.453Z,27.01
2022-08-05T06:39:26.849Z,27.09
2022-08-05T06:41:54.725Z,27.05
2022-08-05T06:44:22.232Z,27.34
2022-08-05T06:46:50.760Z,27.20
2022-08-05T06:49:18.817Z,27.49
2022-08-05T06:51:50.459Z,27.64
2022-08-05T06:54:18.207Z,28.01
2022-08-05T06:56:54.858Z,28.41
2022-08-05T06:59:38.817Z,28.87
2022-08-05T07:02:09.534Z,29.07
2022-08-05T07:04:36.815Z,29.05
2022-08-05T07:07:08.045Z,29.47
2022-08-05T07:09:37.434Z,29.44
2022-08-05T07:12:07.949Z,29.54
2022-08-05T07:14:35.494Z,29.83
2022-08-05T07:18:00.457Z,29.67
2022-08-05T07:20:32.050Z,29.84
2022-08-05T07:22:37.398Z,29.88
2022-08-05T07:25:23.720Z,29.87
2022-08-05T07:28:00.670Z,30.01
2022-08-05T07:30:32.462Z,30.00
2022-08-05T07:33:00.585Z,30.16
2022-08-05T07:36:01.624Z,30.50
2022-08-05T07:38:32.710Z,30.75
2022-08-05T07:41:16.732Z,30.11
2022-08-05T07:43:49.037Z,29.73
2022-08-05T07:46:24.674Z,29.88
2022-08-05T07:49:02.070Z,30.18
2022-08-05T07:51:37.308Z,29.38
2022-08-05T07:54:10.098Z,29.91
2022-08-05T07:57:00.474Z,30.03
2022-08-05T07:59:39.058Z,30.54
2022-08-05T08:02:10.625Z,29.33
2022-08-05T08:04:44.892Z,28.71
2022-08-05T08:07:12.513Z,28.92
2022-08-05T08:09:39.868Z,28.00
2022-08-05T08:12:17.186Z,28.12
2022-08-05T08:14:54.371Z,27.77
2022-08-05T08:17:21.968Z,27.19
2022-08-05T08:20:43.194Z,27.49
2022-08-05T08:22:36.772Z,27.81
2022-08-05T08:25:15.733Z,27.74
2022-08-05T08:27:47.883Z,27.88
2022-08-05T08:32:27.693Z,29.15
2022-08-05T08:34:55.517Z,28.48
2022-08-05T08:37:28.089Z,28.14
2022-08-05T08:39:55.533Z,28.37
2022-08-05T08:42:34.216Z,28.57
2022-08-05T08:45:25.162Z,27.94
2022-08-05T08:48:12.330Z,28.06
2022-08-05T08:51:07.733Z,27.65
2022-08-05T08:55:19.667Z,29.17
2022-08-05T08:58:02.968Z,29.96
2022-08-05T09:00:30.465Z,29.40
2022-08-05T09:02:58.067Z,30.01
2022-08-05T09:05:38.395Z,30.40
2022-08-05T09:08:13.824Z,29.49
2022-08-05T09:10:42.306Z,30.38
2022-08-05T09:13:14.254Z,30.39
2022-08-05T09:15:43.132Z,30.49
2022-08-05T09:18:10.449Z,30.52
2022-08-05T09:20:40.829Z,30.27
2022-08-05T09:23:54.989Z,30.48
2022-08-05T09:26:25.765Z,30.45
2022-08-05T09:28:59.639Z,30.51
2022-08-05T09:32:41.271Z,30.69
2022-08-05T09:34:14.151Z,29.19
2022-08-05T09:36:54.115Z,29.51
2022-08-05T09:39:22.886Z,29.96
2022-08-05T09:41:56.097Z,28.99
2022-08-05T09:44:23.676Z,29.69
2022-08-05T09:46:53.484Z,30.11
2022-08-05T09:49:40.359Z,28.84
2022-08-05T09:52:12.641Z,27.82
2022-08-05T09:54:40.772Z,27.68
2022-08-05T09:57:20.571Z,27.69
2022-08-05T09:59:50.540Z,26.95
2022-08-05T10:02:20.816Z,27.01
2022-08-05T10:04:48.165Z,26.57
2022-08-05T10:07:19.975Z,26.75
2022-08-05T10:09:48.434Z,28.11
2022-08-05T10:12:35.971Z,27.98
2022-08-05T10:15:17.328Z,28.50
2022-08-05T10:17:56.814Z,28.96
2022-08-05T10:20:25.152Z,28.59
2022-08-05T10:22:52.773Z,29.44
2022-08-05T10:25:20.603Z,28.55
2022-08-05T10:28:13.291Z,27.96
2022-08-05T10:32:46.947Z,28.98
2022-08-05T10:33:22.340Z,28.99
2022-08-05T10:35:59.748Z,29.57
2022-08-05T10:38:27.312Z,29.87
2022-08-05T10:40:57.983Z,29.61
2022-08-05T10:43:30.850Z,29.03
2022-08-05T10:46:06.427Z,29.67
2022-08-05T10:48:52.895Z,29.93
2022-08-05T10:51:22.884Z,29.83
2022-08-05T10:53:51.276Z,30.31
2022-08-05T10:56:21.575Z,30.63
2022-08-05T10:58:53.057Z,31.00
2022-08-05T11:01:28.215Z,30.91
2022-08-05T11:04:09.564Z,30.85
2022-08-05T11:06:36.828Z,31.26
2022-08-05T11:09:05.120Z,31.39
2022-08-05T11:11:52.751Z,31.74
2022-08-05T11:14:25.588Z,31.70
2022-08-05T11:17:53.339Z,31.76
2022-08-05T11:20:10.335Z,31.65
2022-08-05T11:22:38.960Z,32.26
2022-08-05T11:25:16.795Z,32.35
2022-08-05T11:28:00.525Z,32.14
2022-08-05T11:30:28.228Z,32.53
2022-08-05T11:32:55.865Z,32.70
2022-08-05T11:35:23.181Z,32.61
2022-08-05T11:38:30.973Z,32.52
2022-08-05T11:40:40.789Z,32.59
2022-08-05T11:43:08.073Z,32.31
2022-08-05T11:46:15.386Z,32.02
2022-08-05T11:48:24.433Z,31.32
2022-08-05T11:50:52.287Z,31.11
2022-08-05T11:53:20.230Z,32.13
2022-08-05T11:55:47.499Z,31.47
2022-08-05T11:58:20.901Z,30.71
2022-08-05T12:00:52.811Z,30.96
2022-08-05T12:03:29.436Z,32.12
2022-08-05T12:06:06.030Z,32.58
2022-08-05T12:08:36.907Z,32.89
2022-08-05T12:11:06.616Z,32.19
2022-08-05T12:13:48.919Z,32.43
2022-08-05T12:16:17.032Z,32.63
2022-08-05T12:18:49.450Z,32.97
2022-08-05T12:21:20.515Z,33.02
2022-08-05T12:23:48.318Z,33.15
2022-08-05T12:26:16.637Z,32.87
2022-08-05T12:28:45.195Z,33.23
2022-08-05T12:31:23.176Z,33.02
2022-08-05T12:33:59.763Z,33.18
2022-08-05T12:36:28.744Z,33.73
2022-08-05T12:38:56.159Z,33.03
2022-08-05T12:41:25.457Z,33.34
2022-08-05T12:44:01.868Z,33.61
2022-08-05T12:46:31.236Z,33.21
2022-08-05T12:48:58.807Z,33.24
2022-08-05T12:52:10.309Z,33.70
2022-08-05T12:54:23.198Z,33.69
2022-08-05T12:56:51.162Z,33.80
2022-08-05T12:59:27.621Z,33.75
2022-08-05T13:02:07.386Z,34.07
2022-08-05T13:04:35.491Z,33.91
2022-08-05T13:07:10.448Z,32.92
2022-08-05T13:09:45.104Z,32.85
2022-08-05T13:12:16.284Z,32.54
2022-08-05T13:14:44.266Z,31.35
2022-08-05T13:17:12.039Z,31.93
2022-08-05T13:19:52.383Z,32.16
2022-08-05T13:22:28.504Z,32.34
2022-08-05T13:24:57.906Z,31.94
2022-08-05T13:27:37.718Z,33.01
2022-08-05T13:30:35.460Z,32.92
2022-08-05T13:32:52.985Z,32.63
2022-08-05T13:35:31.288Z,33.79
2022-08-05T13:38:20.234Z,32.96
2022-08-05T13:40:57.810Z,32.45
2022-08-05T13:43:44.189Z,31.97
2022-08-05T13:46:12.669Z,31.86
2022-08-05T13:48:57.769Z,32.18
2022-08-05T13:51:27.239Z,32.48
2022-08-05T13:53:58.114Z,32.76
2022-08-05T13:56:26.423Z,33.08
2022-08-05T13:58:53.941Z,33.77
2022-08-05T14:01:27.209Z,32.58
2022-08-05T14:04:03.646Z,32.46
2022-08-05T14:06:31.430Z,32.17
2022-08-05T14:08:59.494Z,32.36
2022-08-05T14:11:27.040Z,31.20
2022-08-05T14:13:58.628Z,31.03
2022-08-05T14:16:26.378Z,31.35
2022-08-05T14:18:53.683Z,31.12
2022-08-05T14:22:07.257Z,31.06
2022-08-05T14:24:08.201Z,30.80
2022-08-05T14:26:39.015Z,30.87
2022-08-05T14:29:16.478Z,30.75
2022-08-05T14:32:03.778Z,30.55
2022-08-05T14:34:35.655Z,30.47
2022-08-05T14:37:03.008Z,30.19
2022-08-05T14:39:30.308Z,30.21
2022-08-05T14:42:21.926Z,30.26
2022-08-05T14:44:49.355Z,31.17
2022-08-05T14:47:17.289Z,31.31
2022-08-05T14:50:17.442Z,31.10
2022-08-05T14:52:53.001Z,31.15
2022-08-05T14:55:24.026Z,30.92
2022-08-05T14:57:54.553Z,30.53
2022-08-05T15:00:28.197Z,30.70
2022-08-05T15:02:56.779Z,30.11
2022-08-05T15:05:29.935Z,29.93
2022-08-05T15:08:17.924Z,29.58
2022-08-05T15:11:00.659Z,29.43
2022-08-05T15:13:28.552Z,29.24
2022-08-05T15:16:13.682Z,29.49
2022-08-05T15:18:41.312Z,29.41
2022-08-05T15:21:08.614Z,29.72
2022-08-05T15:23:35.907Z,29.76
2022-08-05T15:26:05.377Z,30.12
2022-08-05T15:28:34.540Z,30.24
2022-08-05T15:31:03.537Z,29.91
2022-08-05T15:33:56.417Z,29.83
2022-08-05T15:36:24.481Z,29.84
2022-08-05T15:40:41.081Z,30.20
2022-08-05T15:41:55.910Z,30.36
2022-08-05T15:44:24.797Z,30.39
2022-08-05T15:46:52.931Z,30.53
2022-08-05T15:49:40.978Z,30.56
2022-08-05T15:52:16.885Z,30.07
2022-08-05T15:54:57.498Z,30.03
2022-08-05T15:57:26.797Z,29.73
2022-08-05T16:00:00.451Z,29.26
2022-08-05T16:02:30.179Z,28.95
2022-08-05T16:04:58.552Z,28.90
2022-08-05T16:07:25.854Z,29.27
2022-08-05T16:09:56.970Z,29.09
2022-08-05T16:12:24.407Z,29.37
2022-08-05T16:14:51.856Z,29.29
2022-08-05T16:17:19.117Z,28.91
2022-08-05T16:20:05.693Z,28.79
2022-08-05T16:22:34.226Z,28.85
2022-08-05T16:25:07.945Z,29.09
2022-08-05T16:28:00.195Z,28.75
2022-08-05T16:30:26.249Z,28.68
2022-08-05T16:32:54.097Z,28.69
2022-08-05T16:35:27.597Z,28.55
2022-08-05T16:38:16.315Z,28.44
2022-08-05T16:40:51.761Z,28.33
2022-08-05T16:43:23.908Z,28.25
2022-08-05T16:46:04.278Z,28.37
2022-08-05T16:48:36.350Z,28.51
2022-08-05T16:51:09.492Z,28.11
2022-08-05T16:54:03.946Z,27.86
2022-08-05T16:56:24.839Z,27.78
2022-08-05T16:58:52.209Z,27.76
2022-08-05T17:01:19.563Z,27.65
2022-08-05T17:03:46.870Z,27.38
2022-08-05T17:06:16.557Z,27.11
2022-08-05T17:08:52.800Z,27.06
2022-08-05T17:11:23.442Z,27.12
2022-08-05T17:14:00.550Z,26.77
2022-08-05T17:16:36.821Z,27.00
2022-08-05T17:19:07.176Z,27.03
2022-08-05T17:21:37.147Z,26.72
2022-08-05T17:24:18.418Z,26.65
2022-08-05T17:26:51.876Z,26.62
2022-08-05T17:29:22.583Z,26.72
2022-08-05T17:32:01.415Z,27.43
2022-08-05T17:34:29.952Z,28.08
2022-08-05T17:36:59.429Z,28.13
2022-08-05T17:39:34.631Z,28.96
2022-08-05T17:42:17.419Z,28.98
2022-08-05T17:44:50.526Z,29.30
2022-08-05T17:47:18.711Z,29.04
2022-08-05T17:50:00.562Z,28.76
2022-08-05T17:52:31.757Z,28.10
2022-08-05T17:54:59.020Z,27.32
2022-08-05T17:57:27.789Z,27.26
2022-08-05T18:00:04.982Z,27.01
2022-08-05T18:02:33.188Z,27.21
2022-08-05T18:05:07.598Z,27.08
2022-08-05T18:07:41.477Z,26.66
2022-08-05T18:10:10.371Z,27.10
2022-08-05T18:12:37.856Z,26.19
2022-08-05T18:15:05.131Z,26.33
2022-08-05T18:17:59.723Z,26.67
2022-08-05T18:20:29.220Z,26.12
2022-08-05T18:23:00.606Z,26.12
2022-08-05T18:25:39.431Z,26.03
2022-08-05T18:28:07.170Z,25.56
2022-08-05T18:30:39.085Z,25.50
2022-08-05T18:33:07.666Z,25.56
2022-08-05T18:36:00.981Z,25.73
2022-08-05T18:38:26.358Z,26.03
2022-08-05T18:41:58.149Z,26.49
2022-08-05T18:43:42.705Z,26.43
2022-08-05T18:46:10.588Z,26.46
2022-08-05T18:48:41.374Z,26.62
2022-08-05T18:52:05.982Z,26.39
2022-08-05T18:53:56.641Z,25.77
2022-08-05T18:56:25.189Z,25.38
2022-08-05T18:58:54.832Z,25.46
2022-08-05T19:01:33.314Z,25.91
2022-08-05T19:04:14.421Z,26.32
2022-08-05T19:06:51.504Z,26.12
2022-08-05T19:09:21.351Z,26.08
2022-08-05T19:12:00.497Z,26.34
2022-08-05T19:14:44.425Z,26.19
2022-08-05T19:17:15.907Z,26.24
2022-08-05T19:19:46.485Z,26.66
2022-08-05T19:22:17.116Z,26.46
2022-08-05T19:24:56.324Z,26.54
2022-08-05T19:27:24.232Z,26.53
2022-08-05T19:29:55.362Z,26.64
2022-08-05T19:32:23.501Z,26.46
2022-08-05T19:34:54.760Z,26.43
2022-08-05T19:37:29.769Z,26.09
2022-08-05T19:40:10.681Z,25.42
2022-08-05T19:42:38.869Z,24.93
2022-08-05T19:45:06.604Z,25.05
2022-08-05T19:47:34.043Z,24.95
2022-08-05T19:50:01.447Z,25.23
2022-08-05T19:52:31.849Z,25.69
2022-08-05T19:55:00.620Z,24.97
2022-08-05T19:57:47.551Z,23.76
2022-08-05T20:00:21.831Z,24.12
2022-08-05T20:02:49.203Z,23.27
2022-08-05T20:05:24.312Z,22.84
2022-08-05T20:07:56.307Z,22.15
2022-08-05T20:10:26.267Z,22.65
2022-08-05T20:12:53.654Z,22.53
2022-08-05T20:15:47.796Z,22.09
2022-08-05T20:18:10.780Z,21.94
2022-08-05T20:20:56.306Z,21.71
2022-08-05T20:23:23.855Z,21.24
2022-08-05T20:26:08.063Z,21.16
2022-08-05T20:28:43.960Z,20.92
2022-08-05T20:31:13.058Z,21.03
2022-08-05T20:33:42.420Z,21.10
2022-08-05T20:36:11.966Z,21.36
2022-08-05T20:38:54.338Z,21.61
2022-08-05T20:41:44.211Z,21.44
2022-08-05T20:44:19.403Z,21.22
2022-08-05T20:46:57.372Z,21.25
2022-08-05T20:49:26.158Z,21.49
2022-08-05T20:51:54.098Z,22.02
2022-08-05T20:54:21.614Z,22.37
2022-08-05T20:56:49.064Z,22.06
2022-08-05T20:59:19.283Z,21.84
2022-08-05T21:01:54.251Z,22.09
2022-08-05T21:04:27.082Z,22.26
2022-08-05T21:06:54.550Z,21.60
2022-08-05T21:09:23.082Z,22.14
2022-08-05T21:12:07.229Z,22.03
2022-08-05T21:14:55.696Z,22.16
2022-08-05T21:17:43.303Z,22.50
2022-08-05T21:20:33.582Z,22.68
2022-08-05T21:23:21.763Z,22.31
2022-08-05T21:26:14.330Z,22.81
2022-08-05T21:29:03.571Z,23.16
2022-08-05T21:31:51.663Z,23.02
2022-08-05T21:34:39.246Z,23.31
2022-08-05T21:37:29.015Z,23.49
2022-08-05T21:40:16.775Z,23.83
2022-08-05T21:43:05.564Z,23.65
2022-08-05T21:45:57.381Z,23.85
2022-08-05T21:48:47.988Z,23.09
2022-08-05T21:52:22.000Z,23.39
2022-08-05T21:54:44.482Z,23.12
2022-08-05T21:57:42.564Z,23.78
2022-08-05T22:00:30.516Z,23.89
2022-08-05T22:03:18.214Z,23.77
2022-08-05T22:06:35.622Z,24.05
2022-08-05T22:09:46.101Z,24.46
2022-08-05T22:12:34.055Z,24.60
2022-08-05T22:16:00.482Z,24.74
2022-08-05T22:18:35.598Z,24.21
2022-08-05T22:21:23.193Z,21.95
2022-08-05T22:24:13.195Z,20.45
2022-08-05T22:27:18.361Z,20.39
2022-08-05T22:30:06.017Z,20.32
2022-08-05T22:32:55.402Z,20.67
2022-08-05T22:35:48.718Z,20.96
2022-08-05T22:38:36.999Z,21.38
2022-08-05T22:41:26.187Z,21.23
2022-08-05T22:44:33.063Z,21.94
2022-08-05T22:47:30.004Z,22.27
2022-08-05T22:50:23.307Z,21.85
2022-08-05T22:53:15.961Z,22.34
2022-08-05T22:56:04.346Z,22.77
2022-08-05T22:58:57.541Z,23.19
2022-08-05T23:02:04.237Z,23.62
2022-08-05T23:04:53.955Z,23.58
2022-08-05T23:07:45.495Z,23.67
2022-08-05T23:10:36.024Z,23.77
2022-08-05T23:13:26.532Z,24.21
2022-08-05T23:16:14.126Z,24.32
2022-08-05T23:19:14.519Z,24.54
2022-08-05T23:22:13.399Z,24.67
2022-08-05T23:25:07.294Z,24.74
2022-08-05T23:28:00.241Z,24.72
2022-08-05T23:30:53.339Z,24.46
2022-08-05T23:34:04.446Z,24.41
2022-08-05T23:36:50.910Z,24.83
2022-08-05T23:39:53.339Z,25.02
2022-08-05T23:42:41.696Z,25.06
2022-08-05T23:45:35.212Z,25.05
2022-08-05T23:48:26.421Z,25.05
2022-08-05T23:51:15.209Z,25.10
2022-08-05T23:54:03.563Z,25.11
2022-08-05T23:56:51.906Z,24.70
